Time;durP1;ratioP1;P1;durP2;ratioP2;P2;SDS_P1;SDS_P2;PMS_P1;PMS_P2;Temp;Humidity;BMP_temperature;BMP_pressure;BME280_temperature;BME280_humidity;BME280_pressure;Samples;Min_cycle;Max_cycle;Signal;HPM_P1;HPM_P2
2022/05/27 00:01:56;;;;;;;5.82;1.10;;;;;;;;;;4980970;28;20150;-67
2022/05/27 00:04:22;;;;;;;7.50;1.50;;;;;;;;;;5022101;28;20076;-66
2022/05/27 00:06:49;;;;;;;6.70;1.40;;;;;;;;;;5012537;28;20054;-67
2022/05/27 00:09:15;;;;;;;4.20;1.10;;;;;;;;;;5006478;28;20058;-67
2022/05/27 00:11:42;;;;;;;5.88;1.27;;;;;;;;;;5004276;28;20061;-67
2022/05/27 00:14:08;;;;;;;6.68;1.23;;;;;;;;;;5030417;28;20058;-68
2022/05/27 00:16:38;;;;;;;4.50;1.30;;;;;;;;;;5026784;28;20050;-68
2022/05/27 00:19:05;;;;;;;4.55;1.20;;;;;;;;;;5005783;28;20068;-65
2022/05/27 00:21:31;;;;;;;6.10;1.50;;;;;;;;;;5030073;28;20057;-65
2022/05/27 00:23:59;;;;;;;7.45;2.00;;;;;;;;;;5018512;28;20049;-65
2022/05/27 00:26:27;;;;;;;8.02;1.30;;;;;;;;;;5027042;28;20060;-66
2022/05/27 00:28:54;;;;;;;9.70;1.67;;;;;;;;;;5019635;28;20056;-66
2022/05/27 00:31:20;;;;;;;5.00;1.20;;;;;;;;;;4982592;28;20069;-66
2022/05/27 00:33:48;;;;;;;9.18;1.60;;;;;;;;;;5013203;28;20050;-66
2022/05/27 00:36:15;;;;;;;3.22;1.20;;;;;;;;;;5012281;28;20108;-66
2022/05/27 00:38:42;;;;;;;7.28;1.83;;;;;;;;;;5005485;28;20045;-67
2022/05/27 00:41:10;;;;;;;7.65;1.70;;;;;;;;;;5009903;28;20061;-66
2022/05/27 00:43:36;;;;;;;10.15;1.50;;;;;;;;;;5001482;28;20074;-66
2022/05/27 00:46:05;;;;;;;4.10;0.95;;;;;;;;;;5007496;28;20137;-66
2022/05/27 00:48:33;;;;;;;7.57;1.05;;;;;;;;;;5003371;28;20151;-66
2022/05/27 00:51:02;;;;;;;14.68;2.03;;;;;;;;;;5003430;28;20050;-70
2022/05/27 00:53:34;;;;;;;4.57;1.23;;;;;;;;;;4992109;28;20073;-70
2022/05/27 00:56:02;;;;;;;7.97;1.10;;;;;;;;;;5007040;28;20053;-70
2022/05/27 00:58:30;;;;;;;6.45;1.35;;;;;;;;;;4997995;28;20076;-69
2022/05/27 01:00:56;;;;;;;4.95;1.30;;;;;;;;;;4997253;28;20050;-69
2022/05/27 01:03:25;;;;;;;6.95;1.25;;;;;;;;;;4989167;28;20082;-69
2022/05/27 01:05:52;;;;;;;8.13;1.45;;;;;;;;;;5011050;28;20127;-67
2022/05/27 01:08:21;;;;;;;5.15;1.40;;;;;;;;;;4992516;28;20131;-67
2022/05/27 01:10:47;;;;;;;;;;;;;;;;;;4987004;28;20069;-70
2022/05/27 01:13:21;;;;;;;3.13;0.88;;;;;;;;;;5009168;28;19987;-67
2022/05/27 01:15:54;;;;;;;6.25;1.40;;;;;;;;;;5003526;28;20112;-67
2022/05/27 01:20:18;;;;;;;1.90;1.00;;;;;;;;;;5024130;28;20065;-67
2022/05/27 01:21:17;;;;;;;3.55;1.00;;;;;;;;;;4974282;28;20069;-69
2022/05/27 01:24:03;;;;;;;2.63;0.98;;;;;;;;;;4985489;28;20077;-67
2022/05/27 01:26:47;;;;;;;5.07;1.17;;;;;;;;;;4973371;28;20058;-67
2022/05/27 01:29:33;;;;;;;7.00;1.10;;;;;;;;;;4985107;28;20060;-69
2022/05/27 01:32:03;;;;;;;6.40;1.30;;;;;;;;;;4987154;28;20054;-67
2022/05/27 01:34:30;;;;;;;7.10;1.27;;;;;;;;;;4993011;28;20042;-68
2022/05/27 01:37:02;;;;;;;6.50;1.60;;;;;;;;;;4987697;28;20149;-66
2022/05/27 01:39:30;;;;;;;3.05;1.45;;;;;;;;;;5008013;28;20351;-66
2022/05/27 01:42:01;;;;;;;6.72;1.35;;;;;;;;;;4986460;28;20058;-67
2022/05/27 01:44:30;;;;;;;5.07;1.33;;;;;;;;;;4992457;28;20112;-66
2022/05/27 01:46:57;;;;;;;6.00;1.30;;;;;;;;;;4986695;28;20054;-67
2022/05/27 01:49:30;;;;;;;5.80;1.48;;;;;;;;;;4992543;28;20068;-67
2022/05/27 01:51:59;;;;;;;5.47;1.52;;;;;;;;;;4986200;28;20065;-67
2022/05/27 01:54:30;;;;;;;3.83;1.30;;;;;;;;;;4992329;28;20049;-67
2022/05/27 01:56:58;;;;;;;8.75;1.55;;;;;;;;;;4980166;28;20138;-68
2022/05/27 01:59:28;;;;;;;7.10;1.60;;;;;;;;;;4998185;28;20060;-68
2022/05/27 02:01:57;;;;;;;7.50;1.73;;;;;;;;;;4981163;28;20124;-66
2022/05/27 02:04:28;;;;;;;4.50;1.20;;;;;;;;;;4993540;28;20100;-67
2022/05/27 02:06:57;;;;;;;8.23;1.70;;;;;;;;;;5011857;28;20061;-67
2022/05/27 02:09:26;;;;;;;8.05;1.80;;;;;;;;;;5014712;28;20069;-68
2022/05/27 02:11:55;;;;;;;6.13;1.65;;;;;;;;;;5016455;28;20100;-68
2022/05/27 02:14:24;;;;;;;2.92;0.88;;;;;;;;;;5006976;28;20060;-68
2022/05/27 02:16:53;;;;;;;3.38;1.02;;;;;;;;;;4978745;28;20124;-67
2022/05/27 02:19:19;;;;;;;;;;;;;;;;;;4984186;28;20054;-67
2022/05/27 02:21:47;;;;;;;4.00;1.17;;;;;;;;;;4989487;28;19957;-67
2022/05/27 02:24:17;;;;;;;6.33;1.40;;;;;;;;;;4997073;28;20057;-67
2022/05/27 02:26:45;;;;;;;3.85;1.20;;;;;;;;;;4989840;28;20356;-67
2022/05/27 02:29:13;;;;;;;6.43;1.52;;;;;;;;;;4999940;28;20092;-66
2022/05/27 02:31:41;;;;;;;3.78;1.23;;;;;;;;;;5006268;28;20049;-66
2022/05/27 02:36:56;;;;;;;3.97;1.33;;;;;;;;;;5005894;28;20052;-66
2022/05/27 02:39:24;;;;;;;4.90;1.48;;;;;;;;;;5007210;28;20073;-66
2022/05/27 02:41:57;;;;;;;6.95;1.70;;;;;;;;;;5001839;28;20064;-67
2022/05/27 02:44:25;;;;;;;3.22;1.40;;;;;;;;;;4992392;28;20053;-68
2022/05/27 02:46:56;;;;;;;5.63;1.33;;;;;;;;;;5001888;28;20180;-67
2022/05/27 02:49:25;;;;;;;6.85;1.60;;;;;;;;;;4991315;28;20049;-67
2022/05/27 02:51:57;;;;;;;4.15;1.20;;;;;;;;;;5001211;28;20049;-67
2022/05/27 02:54:30;;;;;;;5.95;1.70;;;;;;;;;;4989597;28;20045;-67
2022/05/27 02:57:00;;;;;;;3.92;1.40;;;;;;;;;;5001650;28;20054;-68
2022/05/27 02:59:27;;;;;;;6.13;1.65;;;;;;;;;;5006668;28;20053;-66
2022/05/27 03:01:54;;;;;;;6.03;1.35;;;;;;;;;;5008756;28;20062;-68
2022/05/27 03:04:21;;;;;;;6.05;1.45;;;;;;;;;;4982224;28;20062;-68
2022/05/27 03:06:53;;;;;;;4.90;1.52;;;;;;;;;;4987818;28;20084;-66
2022/05/27 03:09:24;;;;;;;6.88;1.60;;;;;;;;;;4981503;28;20066;-66
2022/05/27 03:11:57;;;;;;;9.25;2.05;;;;;;;;;;4988136;28;20125;-66
2022/05/27 03:14:43;;;;;;;12.00;1.70;;;;;;;;;;4981801;28;20085;-68
2022/05/27 03:17:16;;;;;;;3.13;1.10;;;;;;;;;;4989421;28;20050;-67
2022/05/27 03:19:47;;;;;;;8.13;1.42;;;;;;;;;;4984919;28;20058;-66
2022/05/27 03:22:16;;;;;;;3.20;1.30;;;;;;;;;;4989209;28;20061;-68
2022/05/27 03:24:51;;;;;;;4.80;1.23;;;;;;;;;;4987157;28;20086;-66
2022/05/27 03:27:24;;;;;;;3.42;1.23;;;;;;;;;;5003892;28;20141;-66
2022/05/27 03:29:52;;;;;;;7.28;1.80;;;;;;;;;;4999325;28;20073;-66
2022/05/27 03:32:21;;;;;;;9.03;2.17;;;;;;;;;;4952231;28;20059;-68
2022/05/27 03:34:51;;;;;;;3.08;1.13;;;;;;;;;;4968182;28;20329;-66
2022/05/27 03:37:19;;;;;;;5.95;1.00;;;;;;;;;;4965878;28;20050;-67
2022/05/27 03:39:46;;;;;;;;;;;;;;;;;;4987708;28;20102;-68
2022/05/27 03:42:12;;;;;;;8.13;2.05;;;;;;;;;;4955977;28;19957;-66
2022/05/27 03:44:49;;;;;;;4.03;0.98;;;;;;;;;;4988411;28;20062;-67
2022/05/27 03:47:15;;;;;;;7.72;1.35;;;;;;;;;;4996914;28;20352;-68
2022/05/27 03:49:42;;;;;;;7.07;1.20;;;;;;;;;;4991178;28;20137;-68
2022/05/27 03:52:10;;;;;;;2.50;0.80;;;;;;;;;;4994803;28;20066;-68
2022/05/27 03:54:36;;;;;;;2.90;1.08;;;;;;;;;;4975152;28;20054;-68
2022/05/27 03:57:03;;;;;;;3.33;1.17;;;;;;;;;;4968943;28;20061;-67
2022/05/27 03:59:30;;;;;;;3.00;1.13;;;;;;;;;;4961333;28;20083;-67
2022/05/27 04:01:58;;;;;;;11.73;1.50;;;;;;;;;;4958106;28;20054;-66
2022/05/27 04:04:26;;;;;;;7.85;1.95;;;;;;;;;;5005511;28;20125;-66
2022/05/27 04:06:53;;;;;;;7.03;1.77;;;;;;;;;;4988409;28;20043;-67
2022/05/27 04:09:21;;;;;;;3.88;1.38;;;;;;;;;;4974530;28;20052;-66
2022/05/27 04:11:47;;;;;;;6.47;1.40;;;;;;;;;;5001582;28;20662;-67
2022/05/27 04:14:15;;;;;;;3.40;1.08;;;;;;;;;;4974315;28;20078;-66
2022/05/27 04:16:41;;;;;;;6.20;1.40;;;;;;;;;;4968328;28;20129;-66
2022/05/27 04:19:10;;;;;;;5.20;1.73;;;;;;;;;;4955185;28;20054;-66
2022/05/27 04:21:36;;;;;;;2.33;0.95;;;;;;;;;;4972228;28;20134;-67
2022/05/27 04:24:03;;;;;;;4.85;1.10;;;;;;;;;;4968256;28;20054;-67
2022/05/27 04:26:30;;;;;;;8.43;1.20;;;;;;;;;;4974267;28;20054;-67
2022/05/27 04:28:56;;;;;;;3.05;1.02;;;;;;;;;;4956843;28;20096;-66
2022/05/27 04:31:23;;;;;;;7.57;1.60;;;;;;;;;;4990547;28;20085;-66
2022/05/27 04:33:49;;;;;;;8.98;1.75;;;;;;;;;;4971442;28;20058;-66
2022/05/27 04:36:17;;;;;;;2.95;1.00;;;;;;;;;;4971487;28;20103;-67
2022/05/27 04:38:44;;;;;;;8.40;1.60;;;;;;;;;;4976346;28;20054;-66
2022/05/27 04:41:10;;;;;;;6.93;1.70;;;;;;;;;;4990290;28;20114;-66
2022/05/27 04:43:37;;;;;;;6.82;1.75;;;;;;;;;;4968209;28;20062;-66
2022/05/27 04:46:04;;;;;;;7.53;1.60;;;;;;;;;;4973738;28;20062;-67
2022/05/27 04:48:30;;;;;;;8.77;2.05;;;;;;;;;;4964134;28;20058;-67
2022/05/27 04:50:58;;;;;;;7.43;1.70;;;;;;;;;;4960872;28;20057;-67
2022/05/27 04:53:26;;;;;;;6.35;1.60;;;;;;;;;;4982372;28;20069;-66
2022/05/27 04:55:56;;;;;;;4.28;1.75;;;;;;;;;;4955810;28;20122;-68
2022/05/27 04:58:23;;;;;;;3.95;1.35;;;;;;;;;;4952119;28;20061;-67
2022/05/27 05:00:49;;;;;;;7.78;1.95;;;;;;;;;;4973876;28;20074;-67
2022/05/27 05:03:16;;;;;;;12.98;2.20;;;;;;;;;;4981248;28;20053;-66
2022/05/27 05:05:43;;;;;;;11.35;1.92;;;;;;;;;;4969598;28;20058;-66
2022/05/27 05:08:14;;;;;;;5.13;1.50;;;;;;;;;;4974044;28;20065;-66
2022/05/27 05:10:42;;;;;;;15.15;2.30;;;;;;;;;;4984903;28;20073;-66
2022/05/27 05:13:09;;;;;;;10.85;2.33;;;;;;;;;;4992793;28;20053;-66
2022/05/27 05:15:36;;;;;;;4.00;1.50;;;;;;;;;;4973279;28;20086;-66
2022/05/27 05:18:02;;;;;;;8.57;1.73;;;;;;;;;;4989060;28;20065;-66
2022/05/27 05:20:30;;;;;;;8.93;2.10;;;;;;;;;;5003737;28;20050;-66
2022/05/27 05:22:56;;;;;;;9.55;2.25;;;;;;;;;;4985843;28;20555;-66
2022/05/27 05:25:25;;;;;;;10.05;2.70;;;;;;;;;;4976652;28;20049;-67
2022/05/27 05:27:53;;;;;;;7.57;1.52;;;;;;;;;;5008937;28;20069;-66
2022/05/27 05:30:21;;;;;;;12.32;1.80;;;;;;;;;;5003795;28;20063;-67
2022/05/27 05:32:47;;;;;;;16.05;2.05;;;;;;;;;;5008296;28;20104;-67
2022/05/27 05:35:14;;;;;;;17.48;2.38;;;;;;;;;;4981931;28;20046;-67
2022/05/27 05:37:41;;;;;;;8.57;1.90;;;;;;;;;;4973445;28;20054;-66
2022/05/27 05:40:08;;;;;;;12.95;2.03;;;;;;;;;;4987168;28;20066;-67
2022/05/27 05:42:36;;;;;;;7.13;1.67;;;;;;;;;;5008654;28;20142;-67
2022/05/27 05:45:04;;;;;;;3.63;1.30;;;;;;;;;;4987963;28;20053;-66
2022/05/27 05:47:31;;;;;;;10.93;2.05;;;;;;;;;;4990837;28;20056;-66
2022/05/27 05:49:57;;;;;;;8.13;1.70;;;;;;;;;;4991612;28;20041;-67
2022/05/27 05:52:23;;;;;;;10.68;1.73;;;;;;;;;;4985405;28;20128;-67
2022/05/27 05:54:50;;;;;;;6.95;1.55;;;;;;;;;;4973196;28;20058;-66
2022/05/27 05:57:17;;;;;;;9.23;1.73;;;;;;;;;;4982658;28;20062;-66
2022/05/27 05:59:44;;;;;;;12.23;2.10;;;;;;;;;;5008805;28;20061;-66
2022/05/27 06:02:12;;;;;;;6.00;1.42;;;;;;;;;;4975088;28;20057;-67
2022/05/27 06:04:38;;;;;;;7.10;1.50;;;;;;;;;;4953540;28;20055;-66
2022/05/27 06:07:06;;;;;;;6.95;1.95;;;;;;;;;;4958352;28;20263;-66
2022/05/27 06:09:33;;;;;;;6.28;1.65;;;;;;;;;;4988207;28;20054;-67
2022/05/27 06:12:01;;;;;;;8.63;1.60;;;;;;;;;;4988232;28;20050;-67
2022/05/27 06:14:28;;;;;;;8.77;1.70;;;;;;;;;;4989291;28;20110;-66
2022/05/27 06:16:55;;;;;;;15.85;5.60;;;;;;;;;;4965999;28;20051;-66
2022/05/27 06:19:22;;;;;;;9.70;2.67;;;;;;;;;;4972604;28;20121;-66
2022/05/27 06:21:49;;;;;;;4.68;1.17;;;;;;;;;;4980492;28;20046;-66
2022/05/27 06:24:16;;;;;;;6.60;1.58;;;;;;;;;;4987598;28;20058;-67
2022/05/27 06:26:44;;;;;;;5.05;1.50;;;;;;;;;;4979459;28;20054;-67
2022/05/27 06:34:40;;;;;;;2.42;1.25;;;;;;;;;;4971369;28;20054;-66
2022/05/27 06:37:08;;;;;;;9.27;1.35;;;;;;;;;;4981413;28;20113;-66
2022/05/27 06:39:36;;;;;;;8.50;1.70;;;;;;;;;;4985508;28;20062;-66
2022/05/27 06:42:03;;;;;;;7.43;1.57;;;;;;;;;;4985153;28;20073;-67
2022/05/27 06:44:30;;;;;;;5.30;1.48;;;;;;;;;;4981532;28;20069;-67
2022/05/27 06:46:56;;;;;;;8.00;1.85;;;;;;;;;;4985668;28;20058;-66
2022/05/27 06:49:23;;;;;;;5.88;1.48;;;;;;;;;;4994712;28;20122;-67
2022/05/27 06:51:51;;;;;;;6.13;1.40;;;;;;;;;;4986253;28;20057;-67
2022/05/27 06:54:19;;;;;;;15.77;1.42;;;;;;;;;;4981033;28;20149;-67
2022/05/27 06:56:49;;;;;;;6.53;1.42;;;;;;;;;;4984934;28;20054;-67
2022/05/27 06:59:16;;;;;;;9.35;1.15;;;;;;;;;;4983649;28;20062;-67
2022/05/27 07:01:43;;;;;;;9.65;1.70;;;;;;;;;;4971085;28;20153;-67
2022/05/27 07:04:10;;;;;;;10.10;1.75;;;;;;;;;;4973765;28;20086;-69
2022/05/27 07:06:38;;;;;;;5.60;1.50;;;;;;;;;;4975999;28;20055;-70
2022/05/27 07:09:06;;;;;;;11.43;1.67;;;;;;;;;;4971417;28;20068;-69
2022/05/27 07:11:37;;;;;;;11.13;1.73;;;;;;;;;;4984452;28;20046;-70
2022/05/27 07:14:03;;;;;;;6.10;1.30;;;;;;;;;;4980485;28;20158;-71
2022/05/27 07:16:30;;;;;;;11.00;1.70;;;;;;;;;;4962283;28;20050;-70
2022/05/27 07:18:57;;;;;;;8.88;1.60;;;;;;;;;;4985276;28;20115;-71
2022/05/27 07:21:23;;;;;;;9.90;1.15;;;;;;;;;;4958404;28;20061;-70
2022/05/27 07:23:52;;;;;;;8.90;1.27;;;;;;;;;;4983507;28;20054;-70
2022/05/27 07:26:20;;;;;;;5.47;1.52;;;;;;;;;;4975107;28;20054;-70
2022/05/27 07:28:46;;;;;;;4.60;1.02;;;;;;;;;;4986273;28;20132;-70
2022/05/27 07:31:13;;;;;;;7.38;1.70;;;;;;;;;;4957408;28;20090;-70
2022/05/27 07:33:41;;;;;;;11.23;2.65;;;;;;;;;;4985546;28;20081;-71
2022/05/27 07:36:08;;;;;;;9.48;1.75;;;;;;;;;;4986685;28;20050;-70
2022/05/27 07:38:34;;;;;;;11.13;1.88;;;;;;;;;;4977749;28;20168;-70
2022/05/27 07:41:01;;;;;;;776.30;47.85;;;;;;;;;;4985796;28;20051;-70
2022/05/27 07:43:29;;;;;;;117.60;6.97;;;;;;;;;;4977432;28;20058;-71
2022/05/27 07:45:58;;;;;;;17.98;2.92;;;;;;;;;;4985369;28;20129;-70
2022/05/27 07:48:25;;;;;;;12.40;1.80;;;;;;;;;;4968807;28;20057;-70
2022/05/27 07:50:52;;;;;;;5.38;1.35;;;;;;;;;;4959968;28;20122;-70
2022/05/27 07:53:19;;;;;;;8.55;1.70;;;;;;;;;;4981436;28;20113;-70
2022/05/27 07:55:45;;;;;;;9.07;1.63;;;;;;;;;;4969133;28;20082;-70
2022/05/27 07:58:12;;;;;;;10.73;1.48;;;;;;;;;;4968607;28;20169;-69
2022/05/27 08:00:40;;;;;;;12.98;1.85;;;;;;;;;;4976615;28;20050;-70
2022/05/27 08:03:07;;;;;;;8.60;1.10;;;;;;;;;;4981485;28;20063;-71
2022/05/27 08:05:36;;;;;;;6.30;1.27;;;;;;;;;;5001998;28;20140;-71
2022/05/27 08:08:03;;;;;;;9.07;1.60;;;;;;;;;;5007251;28;20077;-72
2022/05/27 08:10:32;;;;;;;11.35;1.98;;;;;;;;;;4993939;28;20062;-72
2022/05/27 08:12:58;;;;;;;8.27;1.45;;;;;;;;;;5015094;28;20106;-70
2022/05/27 08:15:29;;;;;;;11.25;1.60;;;;;;;;;;4995375;28;20055;-71
2022/05/27 08:17:57;;;;;;;6.57;1.38;;;;;;;;;;5002751;28;20050;-70
2022/05/27 08:20:25;;;;;;;6.05;1.30;;;;;;;;;;4996838;28;20057;-71
2022/05/27 08:22:53;;;;;;;8.27;1.27;;;;;;;;;;5006065;28;20049;-70
2022/05/27 08:25:21;;;;;;;18.83;1.58;;;;;;;;;;4994518;28;20045;-70
2022/05/27 08:27:47;;;;;;;5.88;1.35;;;;;;;;;;4984341;28;20057;-70
2022/05/27 08:30:16;;;;;;;10.25;1.35;;;;;;;;;;5009756;28;20220;-71
2022/05/27 08:32:42;;;;;;;8.98;1.65;;;;;;;;;;4983003;28;20053;-70
2022/05/27 08:38:05;;;;;;;10.20;2.10;;;;;;;;;;4989424;28;20057;-69
2022/05/27 08:40:52;;;;;;;5.50;1.33;;;;;;;;;;5004379;28;20103;-71
2022/05/27 08:43:22;;;;;;;8.15;1.40;;;;;;;;;;4987104;28;20075;-70
2022/05/27 08:45:55;;;;;;;14.60;1.90;;;;;;;;;;5001110;28;20061;-70
2022/05/27 08:48:22;;;;;;;8.35;1.60;;;;;;;;;;5010761;28;20054;-70
2022/05/27 08:50:54;;;;;;;8.53;1.57;;;;;;;;;;5018293;28;20054;-72
2022/05/27 08:53:26;;;;;;;5.45;1.13;;;;;;;;;;5008698;28;20312;-72
2022/05/27 09:01:27;;;;;;;6.38;1.73;;;;;;;;;;4994808;28;20050;-71
2022/05/27 09:03:57;;;;;;;8.60;1.70;;;;;;;;;;5010385;28;20057;-71
2022/05/27 09:06:32;;;;;;;9.40;1.27;;;;;;;;;;5016737;28;20081;-70
2022/05/27 09:08:59;;;;;;;9.85;1.65;;;;;;;;;;4992966;28;20045;-71
2022/05/27 09:11:30;;;;;;;6.68;1.70;;;;;;;;;;5015787;28;20100;-71
2022/05/27 09:14:01;;;;;;;5.95;1.88;;;;;;;;;;4992626;28;20053;-71
2022/05/27 09:16:32;;;;;;;9.38;2.20;;;;;;;;;;5019179;28;20049;-72
2022/05/27 09:19:05;;;;;;;10.48;1.55;;;;;;;;;;4990660;28;20119;-71
2022/05/27 09:21:36;;;;;;;7.45;1.33;;;;;;;;;;5000554;28;20062;-70
2022/05/27 09:24:20;;;;;;;13.85;2.35;;;;;;;;;;5011555;28;20077;-73
2022/05/27 09:26:52;;;;;;;12.30;1.90;;;;;;;;;;5012482;28;20060;-71
2022/05/27 09:29:29;;;;;;;9.10;1.60;;;;;;;;;;5009754;28;20081;-70
2022/05/27 09:31:57;;;;;;;7.15;1.75;;;;;;;;;;4996618;28;20060;-70
2022/05/27 09:34:28;;;;;;;10.27;1.90;;;;;;;;;;4995472;28;20168;-72
2022/05/27 09:37:00;;;;;;;13.82;2.28;;;;;;;;;;5015701;28;20128;-70
2022/05/27 09:39:26;;;;;;;10.48;2.10;;;;;;;;;;4989630;28;20056;-73
2022/05/27 09:42:01;;;;;;;16.20;1.80;;;;;;;;;;5012278;28;20065;-74
2022/05/27 09:44:33;;;;;;;10.40;2.03;;;;;;;;;;5013058;28;20057;-71
2022/05/27 09:47:01;;;;;;;6.60;1.15;;;;;;;;;;5013048;28;20050;-71
2022/05/27 09:49:27;;;;;;;5.97;1.27;;;;;;;;;;5013864;28;20061;-73
2022/05/27 09:51:55;;;;;;;7.80;1.63;;;;;;;;;;5006399;28;20060;-74
2022/05/27 09:54:34;;;;;;;10.57;1.73;;;;;;;;;;5019929;28;20103;-72
2022/05/27 09:57:03;;;;;;;8.90;1.63;;;;;;;;;;5005595;28;20050;-73
2022/05/27 09:59:29;;;;;;;;;;;;;;;;;;5012100;28;20121;-74
2022/05/27 10:02:13;;;;;;;11.30;1.65;;;;;;;;;;5003759;28;20028;-71
2022/05/27 10:04:48;;;;;;;8.52;1.90;;;;;;;;;;4981356;28;20137;-72
2022/05/27 10:07:23;;;;;;;9.90;1.50;;;;;;;;;;4979314;28;20111;-71
2022/05/27 10:09:50;;;;;;;7.20;1.30;;;;;;;;;;5010697;28;20111;-72
2022/05/27 10:12:27;;;;;;;10.05;1.40;;;;;;;;;;5008723;28;20061;-75
2022/05/27 10:14:54;;;;;;;7.10;1.70;;;;;;;;;;5006372;28;20057;-70
2022/05/27 10:17:27;;;;;;;8.02;1.58;;;;;;;;;;4993307;28;20117;-71
2022/05/27 10:20:13;;;;;;;9.38;2.25;;;;;;;;;;5005638;28;20049;-70
2022/05/27 10:22:43;;;;;;;7.65;1.60;;;;;;;;;;4997856;28;20058;-71
2022/05/27 10:25:12;;;;;;;13.52;2.53;;;;;;;;;;5006444;28;20141;-74
2022/05/27 10:27:39;;;;;;;7.05;1.85;;;;;;;;;;5000686;28;20061;-71
2022/05/27 10:30:08;;;;;;;10.48;1.70;;;;;;;;;;5000248;28;20070;-72
2022/05/27 10:32:37;;;;;;;9.65;1.70;;;;;;;;;;4999829;28;20049;-72
2022/05/27 10:35:03;;;;;;;;;;;;;;;;;;4982361;28;20062;-73
2022/05/27 10:37:35;;;;;;;10.95;1.50;;;;;;;;;;4996760;28;19925;-71
2022/05/27 10:40:07;;;;;;;9.10;1.50;;;;;;;;;;4974870;28;20061;-71
2022/05/27 10:42:49;;;;;;;20.23;2.67;;;;;;;;;;4997830;28;20149;-70
2022/05/27 10:45:20;;;;;;;8.38;1.45;;;;;;;;;;4993304;28;20077;-71
2022/05/27 10:47:58;;;;;;;8.90;1.75;;;;;;;;;;4996857;28;20046;-71
2022/05/27 10:50:29;;;;;;;8.27;1.60;;;;;;;;;;4993236;28;20062;-71
2022/05/27 10:53:08;;;;;;;9.93;1.55;;;;;;;;;;5003668;28;20057;-69
2022/05/27 10:55:40;;;;;;;12.02;1.85;;;;;;;;;;4998484;28;20054;-69
2022/05/27 11:04:25;;;;;;;8.70;1.50;;;;;;;;;;4996953;28;20081;-69
2022/05/27 11:07:00;;;;;;;9.02;1.40;;;;;;;;;;4989186;28;20099;-67
2022/05/27 11:09:32;;;;;;;7.78;1.40;;;;;;;;;;4983541;28;20049;-68
2022/05/27 11:12:04;;;;;;;6.53;1.70;;;;;;;;;;4990580;28;20061;-68
2022/05/27 11:17:26;;;;;;;9.02;2.10;;;;;;;;;;4992429;28;20093;-68
2022/05/27 11:20:06;;;;;;;16.25;2.72;;;;;;;;;;4980659;28;20053;-67
2022/05/27 11:22:35;;;;;;;7.40;1.58;;;;;;;;;;4992675;28;20053;-67
2022/05/27 11:25:16;;;;;;;12.93;1.88;;;;;;;;;;4983375;28;20062;-68
2022/05/27 11:27:54;;;;;;;14.43;1.58;;;;;;;;;;4988103;28;20061;-68
2022/05/27 11:30:27;;;;;;;12.20;1.67;;;;;;;;;;4988014;28;20064;-67
2022/05/27 11:33:07;;;;;;;12.70;1.42;;;;;;;;;;4990148;28;20157;-68
2022/05/27 11:35:47;;;;;;;11.75;1.40;;;;;;;;;;4986981;28;20057;-68
2022/05/27 11:38:21;;;;;;;5.20;1.30;;;;;;;;;;4988932;28;20045;-67
2022/05/27 11:40:52;;;;;;;8.07;1.60;;;;;;;;;;4983703;28;20054;-67
2022/05/27 11:43:37;;;;;;;8.57;1.45;;;;;;;;;;4991554;28;20101;-68
2022/05/27 11:46:17;;;;;;;12.57;1.88;;;;;;;;;;4981692;28;20054;-69
2022/05/27 11:48:49;;;;;;;15.25;1.92;;;;;;;;;;4990801;28;20038;-67
2022/05/27 11:51:23;;;;;;;7.40;1.60;;;;;;;;;;4981577;28;20054;-68
2022/05/27 11:54:01;;;;;;;9.40;1.50;;;;;;;;;;4990271;28;20060;-68
2022/05/27 11:56:33;;;;;;;7.15;1.67;;;;;;;;;;4983649;28;20058;-68
2022/05/27 11:59:01;;;;;;;9.25;1.67;;;;;;;;;;4991178;28;20066;-68
2022/05/27 12:01:28;;;;;;;;;;;;;;;;;;4967442;28;20058;-68
2022/05/27 12:03:57;;;;;;;8.55;1.65;;;;;;;;;;4980827;28;19987;-67
2022/05/27 12:06:25;;;;;;;12.20;2.22;;;;;;;;;;4970402;28;20109;-68
2022/05/27 12:08:55;;;;;;;10.30;1.63;;;;;;;;;;4979993;28;20077;-67
2022/05/27 12:11:24;;;;;;;13.18;1.80;;;;;;;;;;4975249;28;20055;-67
2022/05/27 12:13:53;;;;;;;6.00;1.33;;;;;;;;;;4993878;28;20092;-68
2022/05/27 12:16:22;;;;;;;8.52;1.73;;;;;;;;;;4981501;28;20058;-67
2022/05/27 12:18:51;;;;;;;9.35;1.73;;;;;;;;;;4986632;28;20065;-66
2022/05/27 12:21:20;;;;;;;13.40;1.90;;;;;;;;;;4999116;28;20130;-67
2022/05/27 12:23:49;;;;;;;8.55;1.60;;;;;;;;;;4968277;28;20058;-68
2022/05/27 12:26:20;;;;;;;8.18;1.75;;;;;;;;;;4988727;28;20085;-68
2022/05/27 12:28:47;;;;;;;5.97;1.45;;;;;;;;;;4982127;28;20051;-67
2022/05/27 12:31:14;;;;;;;5.97;1.33;;;;;;;;;;4977064;28;20057;-67
2022/05/27 12:33:42;;;;;;;4.72;1.17;;;;;;;;;;4975552;28;20047;-67
2022/05/27 12:36:16;;;;;;;10.43;1.98;;;;;;;;;;4982333;28;20058;-68
2022/05/27 12:38:46;;;;;;;9.13;1.40;;;;;;;;;;4980474;28;20191;-66
2022/05/27 12:41:16;;;;;;;10.98;1.65;;;;;;;;;;4977443;28;20061;-68
2022/05/27 12:43:55;;;;;;;7.53;1.27;;;;;;;;;;4983709;28;20133;-68
2022/05/27 12:46:30;;;;;;;7.10;1.30;;;;;;;;;;4975378;28;20054;-66
2022/05/27 12:49:17;;;;;;;12.43;1.88;;;;;;;;;;4988712;28;20054;-68
2022/05/27 12:51:46;;;;;;;5.25;1.45;;;;;;;;;;4980046;28;20066;-68
2022/05/27 12:54:42;;;;;;;7.22;1.55;;;;;;;;;;4998058;28;20050;-67
2022/05/27 13:02:51;;;;;;;14.00;1.63;;;;;;;;;;4967925;28;20021;-67
2022/05/27 13:05:21;;;;;;;4.18;1.15;;;;;;;;;;4992251;28;20116;-67
2022/05/27 13:07:49;;;;;;;7.68;1.15;;;;;;;;;;4983967;28;20064;-67
2022/05/27 13:10:18;;;;;;;;;;;;;;;;;;5005012;28;20046;-68
2022/05/27 13:12:50;;;;;;;10.40;1.90;;;;;;;;;;4987348;28;19932;-67
2022/05/27 13:15:24;;;;;;;9.52;1.85;;;;;;;;;;4996273;28;20062;-69
2022/05/27 13:17:52;;;;;;;7.22;1.25;;;;;;;;;;4995545;28;20072;-67
2022/05/27 13:20:22;;;;;;;9.77;2.05;;;;;;;;;;4999934;28;20133;-67
2022/05/27 13:22:56;;;;;;;7.28;1.48;;;;;;;;;;5003531;28;20125;-68
2022/05/27 13:25:25;;;;;;;15.50;1.70;;;;;;;;;;4995140;28;20050;-67
2022/05/27 13:27:55;;;;;;;6.47;1.83;;;;;;;;;;5002350;28;20058;-66
2022/05/27 13:30:24;;;;;;;13.15;1.70;;;;;;;;;;4994798;28;20090;-67
2022/05/27 13:32:58;;;;;;;5.85;1.33;;;;;;;;;;4990349;28;20058;-67
2022/05/27 13:35:28;;;;;;;9.38;1.60;;;;;;;;;;4998891;28;20062;-66
2022/05/27 13:37:57;;;;;;;5.20;1.10;;;;;;;;;;5005893;28;20064;-67
2022/05/27 13:40:27;;;;;;;9.20;1.40;;;;;;;;;;4994402;28;20054;-67
2022/05/27 13:42:56;;;;;;;11.00;1.50;;;;;;;;;;5000382;28;20054;-68
2022/05/27 13:45:28;;;;;;;;;;;;;;;;;;4977995;28;20118;-67
2022/05/27 13:47:57;;;;;;;9.88;1.35;;;;;;;;;;4986384;28;19952;-67
2022/05/27 13:50:30;;;;;;;10.65;1.15;;;;;;;;;;4998776;28;20045;-66
2022/05/27 13:52:57;;;;;;;6.53;1.35;;;;;;;;;;4978508;28;20061;-67
2022/05/27 13:55:25;;;;;;;11.02;1.70;;;;;;;;;;4984815;28;20070;-66
2022/05/27 13:57:52;;;;;;;10.38;1.55;;;;;;;;;;5002351;28;20051;-67
2022/05/27 14:00:20;;;;;;;8.18;1.38;;;;;;;;;;4992131;28;20060;-67
2022/05/27 14:02:48;;;;;;;3.20;0.93;;;;;;;;;;4973619;28;20142;-67
2022/05/27 14:05:31;;;;;;;9.77;1.73;;;;;;;;;;4987028;28;20063;-67
2022/05/27 14:07:59;;;;;;;7.93;1.65;;;;;;;;;;4999047;28;20054;-68
2022/05/27 14:10:27;;;;;;;7.53;1.38;;;;;;;;;;4991991;28;20065;-69
2022/05/27 14:12:54;;;;;;;;;;;;;;;;;;4981164;28;20050;-69
2022/05/27 14:15:24;;;;;;;11.40;1.52;;;;;;;;;;5001194;28;19930;-69
2022/05/27 14:17:51;;;;;;;8.73;1.55;;;;;;;;;;5004942;28;20081;-67
2022/05/27 14:20:26;;;;;;;7.72;1.77;;;;;;;;;;4988248;28;20066;-68
2022/05/27 14:22:54;;;;;;;5.97;1.45;;;;;;;;;;4994222;28;20081;-70
2022/05/27 14:25:23;;;;;;;6.93;1.10;;;;;;;;;;5008450;28;20062;-68
2022/05/27 14:27:51;;;;;;;12.23;1.42;;;;;;;;;;4978118;28;20046;-68
2022/05/27 14:30:21;;;;;;;12.43;1.30;;;;;;;;;;5000001;28;20057;-67
2022/05/27 14:32:48;;;;;;;16.10;1.77;;;;;;;;;;4986479;28;20056;-69
2022/05/27 14:35:20;;;;;;;7.07;1.35;;;;;;;;;;4984930;28;20077;-67
2022/05/27 14:37:50;;;;;;;10.75;1.65;;;;;;;;;;4984129;28;20054;-68
2022/05/27 14:40:21;;;;;;;11.45;1.95;;;;;;;;;;4977367;28;20057;-68
2022/05/27 14:42:47;;;;;;;11.80;1.67;;;;;;;;;;4999063;28;20089;-69
2022/05/27 14:45:34;;;;;;;14.52;2.00;;;;;;;;;;4994386;28;20058;-67
2022/05/27 14:48:16;;;;;;;6.65;1.30;;;;;;;;;;4995055;28;20066;-69
2022/05/27 14:50:43;;;;;;;9.68;1.52;;;;;;;;;;4994509;28;20053;-68
2022/05/27 14:53:09;;;;;;;14.52;1.30;;;;;;;;;;4999420;28;20065;-68
2022/05/27 14:55:41;;;;;;;6.10;1.20;;;;;;;;;;4998157;28;20080;-68
2022/05/27 14:58:08;;;;;;;10.07;1.45;;;;;;;;;;4994371;28;20050;-67
2022/05/27 15:00:41;;;;;;;8.73;1.58;;;;;;;;;;4987243;28;20145;-68
2022/05/27 15:03:25;;;;;;;8.05;1.83;;;;;;;;;;4999464;28;20052;-68
2022/05/27 15:05:52;;;;;;;8.48;1.48;;;;;;;;;;4996832;28;20117;-66
2022/05/27 15:08:30;;;;;;;5.93;1.10;;;;;;;;;;4983800;28;20046;-69
2022/05/27 15:11:09;;;;;;;6.25;1.35;;;;;;;;;;5000423;28;20117;-69
2022/05/27 15:13:46;;;;;;;5.22;1.10;;;;;;;;;;4974937;28;20057;-69
2022/05/27 15:16:15;;;;;;;8.13;1.73;;;;;;;;;;4991671;28;20077;-69
2022/05/27 15:18:47;;;;;;;7.55;1.45;;;;;;;;;;4982505;28;20306;-69
2022/05/27 15:21:15;;;;;;;10.98;1.30;;;;;;;;;;5001982;28;20100;-69
2022/05/27 15:23:47;;;;;;;8.77;1.60;;;;;;;;;;4986637;28;20046;-69
2022/05/27 15:34:34;;;;;;;8.68;1.50;;;;;;;;;;4983596;28;20046;-69
2022/05/27 15:37:00;;;;;;;7.53;0.95;;;;;;;;;;4989311;28;20046;-70
2022/05/27 15:39:27;;;;;;;13.07;1.60;;;;;;;;;;4976230;28;20118;-69